Time;durP1;ratioP1;P1;durP2;ratioP2;P2;SDS_P1;SDS_P2;PMS_P1;PMS_P2;Temp;Humidity;BMP_temperature;BMP_pressure;BME280_temperature;BME280_humidity;BME280_pressure;Samples;Min_cycle;Max_cycle;Signal;HPM_P1;HPM_P2
2023/10/27 00:01:06;;;;;;;10.60;2.22;;;18.60;99.90;;;;;;5111871;28;20042;-72
2023/10/27 00:04:10;;;;;;;12.52;2.20;;;19.30;99.90;;;;;;5111718;28;20398;-72
2023/10/27 00:07:14;;;;;;;11.50;2.28;;;;;;;;;;5111787;28;20047;-72
2023/10/27 00:10:18;;;;;;;8.88;1.63;;;;;;;;;;5111611;28;20043;-72
2023/10/27 00:13:23;;;;;;;8.48;1.55;;;;;;;;;;5111743;28;20044;-72
2023/10/27 00:16:27;;;;;;;7.03;1.80;;;;;;;;;;5111692;28;20036;-72
2023/10/27 00:19:32;;;;;;;9.35;1.80;;;;;;;;;;5111554;28;20036;-72
2023/10/27 00:22:36;;;;;;;15.45;2.25;;;;;;;;;;5111194;28;20032;-72
2023/10/27 00:25:40;;;;;;;14.90;2.13;;;20.30;99.90;;;;;;5111164;28;20398;-72
2023/10/27 00:28:45;;;;;;;11.85;1.60;;;20.20;99.90;;;;;;5111460;28;20042;-72
2023/10/27 00:31:49;;;;;;;9.77;2.03;;;20.40;99.90;;;;;;5110375;28;20062;-72
2023/10/27 00:34:53;;;;;;;9.93;2.30;;;21.50;99.90;;;;;;5111519;28;20043;-72
2023/10/27 00:37:57;;;;;;;16.15;2.80;;;20.30;99.90;;;;;;5111526;28;20046;-72
2023/10/27 00:41:01;;;;;;;16.95;3.05;;;20.40;99.90;;;;;;5111342;28;20038;-72
2023/10/27 00:44:05;;;;;;;20.40;4.10;;;20.50;99.90;;;;;;5110721;28;20074;-72
2023/10/27 00:47:09;;;;;;;31.17;4.10;;;20.60;99.90;;;;;;5110735;28;20047;-72
2023/10/27 00:50:13;;;;;;;19.98;3.08;;;20.70;99.90;;;;;;5111204;28;20055;-72
2023/10/27 00:53:20;;;;;;;27.80;3.83;;;20.70;99.90;;;;;;5110715;28;20042;-72
2023/10/27 00:56:24;;;;;;;22.80;4.20;;;20.30;99.90;;;;;;5110642;28;20050;-72
2023/10/27 00:59:30;;;;;;;23.52;4.15;;;20.90;99.90;;;;;;5111399;28;20493;-72
2023/10/27 01:02:34;;;;;;;29.02;5.07;;;20.90;99.90;;;;;;5110394;28;20089;-72
2023/10/27 01:05:38;;;;;;;21.33;3.85;;;21.00;99.90;;;;;;5110186;28;20038;-71
2023/10/27 01:08:42;;;;;;;26.67;4.88;;;21.60;99.90;;;;;;5112492;28;20035;-72
2023/10/27 01:11:50;;;;;;;31.83;5.43;;;21.00;99.90;;;;;;5114881;28;20055;-72
2023/10/27 01:14:54;;;;;;;26.60;4.93;;;21.00;99.90;;;;;;5115001;28;20062;-71
2023/10/27 01:18:01;;;;;;;29.17;3.65;;;21.00;99.90;;;;;;5115058;28;20050;-72
2023/10/27 01:21:05;;;;;;;33.25;4.72;;;21.00;99.90;;;;;;5113903;28;20605;-72
2023/10/27 01:24:09;;;;;;;31.20;4.43;;;21.10;99.90;;;;;;5114985;28;20653;-71
2023/10/27 01:27:13;;;;;;;29.92;5.72;;;21.10;99.90;;;;;;5114759;28;20035;-74
2023/10/27 01:30:17;;;;;;;31.20;4.57;;;21.00;99.90;;;;;;5101977;28;20055;-73
2023/10/27 01:33:21;;;;;;;27.45;4.72;;;21.20;99.90;;;;;;5114655;28;20366;-73
2023/10/27 01:36:25;;;;;;;40.08;4.60;;;21.20;99.90;;;;;;5114006;28;20046;-72
2023/10/27 01:39:30;;;;;;;30.90;4.72;;;22.70;99.90;;;;;;5114950;28;20046;-72
2023/10/27 01:42:35;;;;;;;30.70;4.90;;;21.20;99.90;;;;;;5114714;28;20048;-72
2023/10/27 01:45:39;;;;;;;34.33;4.75;;;21.20;99.90;;;;;;5114675;28;20513;-72
2023/10/27 01:48:46;;;;;;;23.95;3.70;;;21.20;99.90;;;;;;5113975;28;20097;-72
2023/10/27 01:51:50;;;;;;;25.05;4.00;;;21.60;99.90;;;;;;5114460;28;20395;-71
2023/10/27 01:54:54;;;;;;;28.88;4.93;;;21.20;99.90;;;;;;5114990;28;20050;-72
2023/10/27 01:57:58;;;;;;;32.30;5.55;;;21.30;99.90;;;;;;5113823;28;20043;-72
2023/10/27 02:01:02;;;;;;;33.53;4.90;;;21.50;99.90;;;;;;5113288;28;20038;-72
2023/10/27 02:04:06;;;;;;;28.13;4.20;;;21.30;99.90;;;;;;5113022;28;20035;-72
2023/10/27 02:07:12;;;;;;;22.00;4.72;;;21.30;99.90;;;;;;5114323;28;20506;-72
2023/10/27 02:10:15;;;;;;;24.77;4.22;;;21.30;99.90;;;;;;5112962;28;20050;-71
2023/10/27 02:13:19;;;;;;;23.85;5.10;;;21.30;99.90;;;;;;5113133;28;20045;-71
2023/10/27 02:16:23;;;;;;;29.15;5.43;;;21.30;99.90;;;;;;5113866;28;20039;-72
2023/10/27 02:19:27;;;;;;;32.78;5.65;;;21.30;99.90;;;;;;5112877;28;20407;-72
2023/10/27 02:22:34;;;;;;;25.23;4.72;;;21.30;99.90;;;;;;5112827;28;20043;-71
2023/10/27 02:25:38;;;;;;;25.02;5.10;;;21.30;99.90;;;;;;5114147;28;20035;-72
2023/10/27 02:28:42;;;;;;;31.80;5.38;;;21.30;99.90;;;;;;5112641;28;20042;-72
2023/10/27 02:31:46;;;;;;;28.80;5.03;;;21.30;99.90;;;;;;5113413;28;20050;-72
2023/10/27 02:34:50;;;;;;;42.65;5.95;;;21.40;99.90;;;;;;5113427;28;20034;-72
2023/10/27 02:37:55;;;;;;;30.40;5.10;;;19.70;99.90;;;;;;5113744;28;20038;-72
2023/10/27 02:41:09;;;;;;;33.78;5.28;;;21.40;99.90;;;;;;5113207;28;20039;-73
2023/10/27 02:44:13;;;;;;;30.00;4.85;;;21.30;99.90;;;;;;5113469;28;20038;-72
2023/10/27 02:47:18;;;;;;;28.75;5.63;;;21.30;99.90;;;;;;5112677;28;20051;-71
2023/10/27 02:50:23;;;;;;;27.95;5.10;;;21.30;99.90;;;;;;5112201;28;20201;-72
2023/10/27 02:53:27;;;;;;;24.23;4.00;;;21.00;99.90;;;;;;5113283;28;20043;-72
2023/10/27 02:56:31;;;;;;;18.85;4.28;;;21.20;99.90;;;;;;5113236;28;20494;-72
2023/10/27 02:59:35;;;;;;;23.95;5.05;;;21.10;99.90;;;;;;5112983;28;20043;-73
2023/10/27 03:02:39;;;;;;;42.70;6.55;;;21.10;99.90;;;;;;5113113;28;20502;-71
2023/10/27 03:05:43;;;;;;;43.97;8.10;;;21.10;99.90;;;;;;5113153;28;20047;-72
2023/10/27 03:08:47;;;;;;;45.60;6.35;;;21.10;99.90;;;;;;5112776;28;20047;-71
2023/10/27 03:11:52;;;;;;;40.70;6.40;;;21.10;99.90;;;;;;5111956;28;20051;-72
2023/10/27 03:14:56;;;;;;;49.38;6.97;;;21.10;99.90;;;;;;5112936;28;20038;-72
2023/10/27 03:18:01;;;;;;;41.92;6.25;;;22.50;99.90;;;;;;5112803;28;20042;-71
2023/10/27 03:21:05;;;;;;;42.17;7.35;;;19.80;99.90;;;;;;5112365;28;20055;-72
2023/10/27 03:24:09;;;;;;;38.90;6.63;;;21.20;99.90;;;;;;5112521;28;20043;-71
2023/10/27 03:27:14;;;;;;;42.55;6.47;;;20.80;99.90;;;;;;5112604;28;20034;-72
2023/10/27 03:30:18;;;;;;;26.83;4.82;;;21.20;99.90;;;;;;5111238;28;20059;-72
2023/10/27 03:33:21;;;;;;;33.88;6.32;;;21.20;99.90;;;;;;5112528;28;20039;-71
2023/10/27 03:36:28;;;;;;;33.40;6.30;;;20.40;99.90;;;;;;5112004;28;20067;-71
2023/10/27 03:39:32;;;;;;;35.60;6.57;;;21.20;99.90;;;;;;5112244;28;20042;-71
2023/10/27 03:42:36;;;;;;;32.30;5.25;;;21.20;99.90;;;;;;5112147;28;20058;-72
2023/10/27 03:45:40;;;;;;;31.83;5.38;;;21.20;99.90;;;;;;5112125;28;20043;-71
2023/10/27 03:48:48;;;;;;;32.95;6.80;;;20.10;99.90;;;;;;5112061;28;20038;-72
2023/10/27 03:51:52;;;;;;;34.53;6.20;;;21.30;99.90;;;;;;5111971;28;20047;-72
2023/10/27 03:54:56;;;;;;;37.47;5.93;;;21.30;99.90;;;;;;5112214;28;20165;-72
2023/10/27 03:58:16;;;;;;;48.83;8.73;;;21.30;99.90;;;;;;5112142;28;20046;-72
2023/10/27 04:01:20;;;;;;;39.67;6.63;;;21.20;99.90;;;;;;5111936;28;20402;-72
2023/10/27 04:04:24;;;;;;;42.17;6.82;;;21.30;99.90;;;;;;5112054;28;20046;-72
2023/10/27 04:07:27;;;;;;;50.38;5.78;;;21.20;99.90;;;;;;5111709;28;20047;-72
2023/10/27 04:10:34;;;;;;;44.88;5.82;;;21.30;99.90;;;;;;5111697;28;20038;-72
2023/10/27 04:13:39;;;;;;;34.28;5.55;;;21.30;99.90;;;;;;5111833;28;20046;-72
2023/10/27 04:16:43;;;;;;;34.13;6.03;;;21.30;99.90;;;;;;5111804;28;20042;-72
2023/10/27 04:19:46;;;;;;;31.20;5.72;;;21.30;99.90;;;;;;5111759;28;20066;-71
2023/10/27 04:22:50;;;;;;;35.72;5.63;;;21.20;99.90;;;;;;5111384;28;20035;-72
2023/10/27 04:25:54;;;;;;;32.17;5.43;;;21.20;99.90;;;;;;5110812;28;20042;-72
2023/10/27 04:28:59;;;;;;;25.88;4.93;;;21.30;99.90;;;;;;5111195;28;20490;-72
2023/10/27 04:32:04;;;;;;;34.63;5.90;;;21.30;99.90;;;;;;5111577;28;20062;-72
2023/10/27 04:35:09;;;;;;;28.80;5.50;;;21.20;99.90;;;;;;5111098;28;20043;-72
2023/10/27 04:38:13;;;;;;;47.15;6.15;;;21.20;99.90;;;;;;5111291;28;20261;-73
2023/10/27 04:41:20;;;;;;;42.05;6.80;;;21.30;99.90;;;;;;5111479;28;20038;-72
2023/10/27 04:44:27;;;;;;;41.55;6.78;;;21.30;99.90;;;;;;5114276;28;20227;-73
2023/10/27 04:47:31;;;;;;;38.42;6.30;;;21.30;99.90;;;;;;5115625;28;20047;-73
2023/10/27 04:50:36;;;;;;;36.35;6.28;;;21.30;99.90;;;;;;5115372;28;20066;-73
2023/10/27 04:53:40;;;;;;;30.10;5.22;;;21.30;99.90;;;;;;5115780;28;20049;-73
2023/10/27 04:56:44;;;;;;;34.25;5.72;;;21.30;99.90;;;;;;5115518;28;20526;-73
2023/10/27 04:59:51;;;;;;;31.92;5.40;;;21.30;99.90;;;;;;5115064;28;20043;-72
2023/10/27 05:02:55;;;;;;;32.25;6.13;;;21.40;99.90;;;;;;5115221;28;20039;-73
2023/10/27 05:06:10;;;;;;;39.10;6.05;;;21.30;99.90;;;;;;5115352;28;20047;-73
2023/10/27 05:09:14;;;;;;;37.55;8.07;;;21.40;99.90;;;;;;5115173;28;20062;-72
2023/10/27 05:12:19;;;;;;;25.90;5.05;;;21.40;99.90;;;;;;5115201;28;20046;-73
2023/10/27 05:15:23;;;;;;;40.08;5.43;;;21.30;99.90;;;;;;5114742;28;20038;-73
2023/10/27 05:18:27;;;;;;;30.65;5.68;;;21.30;99.90;;;;;;5114620;28;20058;-73
2023/10/27 05:21:31;;;;;;;35.15;5.15;;;;;;;;;;5114596;28;20039;-66
2023/10/27 05:24:35;;;;;;;38.35;5.15;;;21.40;99.90;;;;;;5114888;28;20039;-66
2023/10/27 05:27:39;;;;;;;27.55;4.65;;;21.40;99.90;;;;;;5114560;28;20055;-66
2023/10/27 05:30:46;;;;;;;33.47;5.10;;;21.40;99.90;;;;;;5113815;28;20410;-66
2023/10/27 05:33:51;;;;;;;26.50;5.72;;;21.40;99.90;;;;;;5102143;28;20042;-66
2023/10/27 05:36:56;;;;;;;33.25;6.80;;;21.50;99.90;;;;;;5114856;28;20054;-65
2023/10/27 05:40:00;;;;;;;36.55;6.10;;;21.50;99.90;;;;;;5114730;28;20570;-65
2023/10/27 05:43:04;;;;;;;34.88;5.32;;;21.40;99.90;;;;;;5114326;28;20046;-66
2023/10/27 05:46:08;;;;;;;32.15;5.28;;;21.50;99.90;;;;;;5114387;28;20082;-65
2023/10/27 05:49:12;;;;;;;29.92;5.20;;;21.50;99.90;;;;;;5114258;28;20398;-64
2023/10/27 05:52:16;;;;;;;26.70;5.32;;;21.50;99.90;;;;;;5114161;28;20093;-65
2023/10/27 05:55:20;;;;;;;41.20;5.90;;;21.60;99.90;;;;;;5114048;28;20043;-65
2023/10/27 05:58:24;;;;;;;36.13;5.93;;;21.60;99.90;;;;;;5113449;28;20047;-65
2023/10/27 06:01:29;;;;;;;32.40;5.90;;;;;;;;;;5113890;28;20043;-64
2023/10/27 06:04:36;;;;;;;36.00;5.28;;;;;;;;;;5114132;28;20042;-64
2023/10/27 06:07:40;;;;;;;35.25;6.80;;;21.90;99.90;;;;;;5114236;28;20046;-64
2023/10/27 06:10:44;;;;;;;32.22;5.13;;;21.80;99.90;;;;;;5113527;28;20039;-64
2023/10/27 06:13:49;;;;;;;37.72;6.30;;;21.80;99.90;;;;;;5114001;28;20054;-65
2023/10/27 06:16:53;;;;;;;38.35;5.90;;;21.80;99.90;;;;;;5113635;28;20046;-66
2023/10/27 06:19:57;;;;;;;40.92;6.85;;;21.80;99.90;;;;;;5112718;28;20050;-70
2023/10/27 06:23:01;;;;;;;42.60;6.68;;;21.80;99.90;;;;;;5113648;28;20113;-64
2023/10/27 06:26:05;;;;;;;39.25;6.28;;;21.00;99.90;;;;;;5113556;28;20035;-64
2023/10/27 06:29:08;;;;;;;40.17;6.82;;;21.80;99.90;;;;;;5113353;28;20054;-65
2023/10/27 06:32:12;;;;;;;48.45;6.82;;;21.80;99.90;;;;;;5113356;28;20231;-64
2023/10/27 06:35:16;;;;;;;41.78;7.40;;;21.90;99.90;;;;;;5113569;28;20038;-64
2023/10/27 06:38:20;;;;;;;41.50;5.93;;;21.90;99.90;;;;;;5113331;28;20047;-64
2023/10/27 06:41:24;;;;;;;46.05;9.18;;;21.90;99.90;;;;;;5113351;28;20050;-64
2023/10/27 06:44:28;;;;;;;37.00;6.30;;;21.90;99.90;;;;;;5113477;28;20046;-64
2023/10/27 06:47:32;;;;;;;34.90;6.35;;;22.00;99.90;;;;;;5113226;28;20046;-64
2023/10/27 06:50:40;;;;;;;40.08;6.47;;;22.00;99.90;;;;;;5112521;28;20051;-63
2023/10/27 06:53:44;;;;;;;51.03;9.23;;;22.00;99.90;;;;;;5111455;28;20062;-64
2023/10/27 06:56:50;;;;;;;31.73;6.05;;;22.10;99.90;;;;;;5112796;28;20050;-64
2023/10/27 06:59:56;;;;;;;44.67;8.18;;;22.00;99.90;;;;;;5112545;28;20055;-64
2023/10/27 07:02:59;;;;;;;49.88;8.35;;;22.00;99.90;;;;;;5112920;28;20039;-64
2023/10/27 07:06:07;;;;;;;55.38;8.55;;;22.10;99.90;;;;;;5111998;28;20062;-63
2023/10/27 07:09:11;;;;;;;43.28;6.95;;;22.10;99.90;;;;;;5112742;28;20046;-66
2023/10/27 07:12:16;;;;;;;42.90;7.05;;;22.10;99.90;;;;;;5112534;28;20062;-66
2023/10/27 07:15:20;;;;;;;62.22;8.82;;;22.30;99.90;;;;;;5113007;28;20050;-64
2023/10/27 07:18:23;;;;;;;41.22;6.50;;;22.50;99.90;;;;;;5112554;28;20109;-64
2023/10/27 07:21:28;;;;;;;49.33;7.30;;;22.60;99.90;;;;;;5112796;28;20047;-64
2023/10/27 07:24:32;;;;;;;43.00;7.53;;;22.70;99.90;;;;;;5112452;28;20403;-64
2023/10/27 07:27:36;;;;;;;37.33;6.25;;;22.80;99.90;;;;;;5112584;28;20122;-64
2023/10/27 07:30:40;;;;;;;37.58;6.93;;;22.90;99.90;;;;;;5112408;28;20051;-64
2023/10/27 07:33:44;;;;;;;33.50;7.28;;;23.10;99.90;;;;;;5112517;28;20043;-63
2023/10/27 07:36:48;;;;;;;45.20;8.60;;;23.20;99.90;;;;;;5112541;28;20039;-64
2023/10/27 07:39:52;;;;;;;36.88;6.22;;;23.20;99.90;;;;;;5111516;28;20047;-64
2023/10/27 07:42:58;;;;;;;32.60;6.55;;;23.30;99.90;;;;;;5112085;28;20043;-64
2023/10/27 07:46:02;;;;;;;39.92;6.97;;;23.30;99.90;;;;;;5112225;28;20043;-63
2023/10/27 07:49:06;;;;;;;35.67;9.15;;;23.30;99.90;;;;;;5112128;28;20042;-63
2023/10/27 07:52:10;;;;;;;44.80;8.00;;;23.20;99.90;;;;;;5111519;28;20047;-65
2023/10/27 07:55:14;;;;;;;43.33;7.03;;;23.20;99.90;;;;;;5111899;28;20406;-64
2023/10/27 07:58:20;;;;;;;32.85;6.30;;;23.30;99.90;;;;;;5111700;28;20043;-64
2023/10/27 08:01:24;;;;;;;43.78;6.68;;;23.60;99.90;;;;;;5111670;28;20038;-64
2023/10/27 08:04:32;;;;;;;31.98;6.70;;;23.90;99.90;;;;;;5112014;28;20086;-63
2023/10/27 08:07:37;;;;;;;30.83;6.43;;;24.00;99.90;;;;;;5111451;28;20502;-64
2023/10/27 08:10:42;;;;;;;36.58;7.70;;;24.20;99.90;;;;;;5111592;28;20402;-64
2023/10/27 08:13:46;;;;;;;41.10;7.30;;;24.20;99.90;;;;;;5110000;28;20134;-64
2023/10/27 08:16:50;;;;;;;39.78;7.10;;;24.20;99.90;;;;;;5111582;28;20050;-64
2023/10/27 08:19:55;;;;;;;40.22;6.80;;;24.20;99.90;;;;;;5111615;28;20039;-64
2023/10/27 08:22:59;;;;;;;41.75;7.18;;;24.10;99.90;;;;;;5111187;28;20042;-64
2023/10/27 08:26:03;;;;;;;38.25;5.85;;;24.10;99.90;;;;;;5111193;28;20046;-64
2023/10/27 08:29:07;;;;;;;33.22;6.93;;;24.20;99.90;;;;;;5111389;28;20047;-64
2023/10/27 08:32:13;;;;;;;40.00;6.40;;;24.30;99.90;;;;;;5111165;28;20054;-64
2023/10/27 08:35:17;;;;;;;31.58;6.07;;;24.30;99.90;;;;;;5111274;28;20038;-64
2023/10/27 08:38:24;;;;;;;43.20;7.50;;;24.30;99.90;;;;;;5111530;28;20050;-64
2023/10/27 08:41:28;;;;;;;41.72;6.75;;;24.20;99.90;;;;;;5111259;28;20588;-63
2023/10/27 08:44:33;;;;;;;37.83;8.52;;;24.10;99.90;;;;;;5111364;28;20055;-64
2023/10/27 08:47:37;;;;;;;36.22;5.78;;;24.00;99.90;;;;;;5111354;28;20711;-64
2023/10/27 08:50:41;;;;;;;36.58;6.55;;;23.90;99.90;;;;;;5111029;28;20542;-64
2023/10/27 08:53:45;;;;;;;42.60;9.52;;;23.90;99.90;;;;;;5111197;28;20066;-64
2023/10/27 08:56:49;;;;;;;34.20;6.03;;;24.10;99.90;;;;;;5111240;28;20043;-63
2023/10/27 08:59:54;;;;;;;39.20;7.65;;;24.30;99.90;;;;;;5111226;28;20046;-63
2023/10/27 09:03:17;;;;;;;37.35;7.15;;;24.50;99.90;;;;;;5110935;28;20086;-64
2023/10/27 09:06:21;;;;;;;39.33;7.60;;;24.70;99.90;;;;;;5111044;28;20034;-63
2023/10/27 09:09:25;;;;;;;36.03;6.60;;;24.90;99.90;;;;;;5111016;28;20047;-63
2023/10/27 09:12:31;;;;;;;40.85;6.38;;;25.00;99.90;;;;;;5110871;28;20403;-63
2023/10/27 09:15:44;;;;;;;39.50;6.30;;;25.20;99.90;;;;;;5110787;28;20047;-63
2023/10/27 09:18:48;;;;;;;43.13;8.60;;;25.10;99.90;;;;;;5111056;28;20051;-63
2023/10/27 09:21:53;;;;;;;45.00;7.95;;;25.20;99.90;;;;;;5110553;28;20043;-63
2023/10/27 09:25:17;;;;;;;38.80;6.53;;;25.20;99.90;;;;;;5111051;28;20055;-63
2023/10/27 09:28:30;;;;;;;44.47;7.82;;;25.20;99.90;;;;;;5110941;28;20055;-64
2023/10/27 09:31:35;;;;;;;35.05;6.90;;;25.10;99.90;;;;;;5114449;28;20054;-64
2023/10/27 09:34:39;;;;;;;42.35;8.50;;;24.90;99.90;;;;;;5114226;28;20046;-64
2023/10/27 09:37:43;;;;;;;47.10;8.85;;;24.90;99.90;;;;;;5114335;28;20043;-64
2023/10/27 09:40:48;;;;;;;34.78;7.78;;;24.80;99.90;;;;;;5114551;28;20050;-64
2023/10/27 09:43:52;;;;;;;38.83;7.10;;;24.60;99.90;;;;;;5114343;28;20505;-62
2023/10/27 09:47:01;;;;;;;50.28;8.23;;;24.60;99.90;;;;;;5114177;28;20039;-63
2023/10/27 09:50:06;;;;;;;46.47;8.60;;;24.50;99.90;;;;;;5114338;28;20047;-63
2023/10/27 09:53:14;;;;;;;42.70;7.72;;;24.50;99.90;;;;;;5114365;28;20046;-63
2023/10/27 09:56:19;;;;;;;38.47;7.93;;;24.40;99.90;;;;;;5114181;28;20042;-63
2023/10/27 09:59:23;;;;;;;44.60;8.02;;;24.30;99.90;;;;;;5113983;28;20054;-63
2023/10/27 10:02:31;;;;;;;29.90;7.05;;;24.20;99.90;;;;;;5114137;28;20498;-63
2023/10/27 10:06:10;;;;;;;39.50;5.47;;;24.00;99.90;;;;;;5114307;28;20043;-63
2023/10/27 10:09:18;;;;;;;41.58;7.35;;;23.90;99.90;;;;;;5113737;28;20046;-64
2023/10/27 10:12:22;;;;;;;32.88;6.15;;;23.80;99.90;;;;;;5113864;28;20059;-63
2023/10/27 10:15:38;;;;;;;36.20;6.85;;;23.70;99.90;;;;;;5113781;28;20058;-63
2023/10/27 10:18:48;;;;;;;38.92;6.70;;;23.70;99.90;;;;;;5113840;28;20039;-63
2023/10/27 10:21:52;;;;;;;24.37;5.37;;;23.70;99.90;;;;;;5113419;28;20051;-63
2023/10/27 10:25:17;;;;;;;28.73;6.68;;;23.70;99.90;;;;;;5113720;28;20280;-64
2023/10/27 10:28:30;;;;;;;32.80;8.05;;;23.60;99.90;;;;;;5112544;28;20070;-64
2023/10/27 10:31:34;;;;;;;42.42;8.05;;;23.70;99.90;;;;;;5113067;28;20407;-64
2023/10/27 10:34:38;;;;;;;40.92;7.45;;;23.60;99.90;;;;;;5112676;28;20083;-64
2023/10/27 10:37:42;;;;;;;34.22;6.65;;;23.60;99.90;;;;;;5113581;28;20050;-63
2023/10/27 10:40:49;;;;;;;42.15;8.13;;;23.60;99.90;;;;;;5112002;28;20409;-63
2023/10/27 10:44:15;;;;;;;37.83;6.95;;;23.50;99.90;;;;;;5113311;28;20051;-63
2023/10/27 10:47:25;;;;;;;42.42;7.47;;;23.50;99.90;;;;;;5113154;28;20050;-64
2023/10/27 10:50:29;;;;;;;45.97;8.23;;;23.50;99.90;;;;;;5113010;28;20042;-63
2023/10/27 10:53:33;;;;;;;46.67;8.20;;;23.50;99.90;;;;;;5113084;28;20368;-63
2023/10/27 10:56:37;;;;;;;34.25;7.30;;;23.50;99.90;;;;;;5112724;28;20046;-64
2023/10/27 10:59:54;;;;;;;39.40;6.75;;;23.50;99.90;;;;;;5111951;28;20051;-64
2023/10/27 11:03:12;;;;;;;41.97;7.63;;;23.50;99.90;;;;;;5112696;28;20042;-64
2023/10/27 11:06:23;;;;;;;42.47;8.57;;;23.50;99.90;;;;;;5112681;28;20043;-64
2023/10/27 11:09:27;;;;;;;43.20;7.82;;;23.50;99.90;;;;;;5112541;28;20055;-64
2023/10/27 11:12:31;;;;;;;42.55;7.53;;;23.50;99.90;;;;;;5112548;28;20051;-64
2023/10/27 11:15:43;;;;;;;40.40;6.97;;;23.50;99.90;;;;;;5112458;28;20506;-64
2023/10/27 11:18:49;;;;;;;44.28;6.53;;;23.50;99.90;;;;;;5112352;28;20058;-64
2023/10/27 11:21:54;;;;;;;47.38;8.63;;;23.50;99.90;;;;;;5112187;28;20498;-64
2023/10/27 11:25:01;;;;;;;34.38;6.95;;;23.50;99.90;;;;;;5112184;28;20082;-64
2023/10/27 11:28:20;;;;;;;43.40;7.82;;;23.40;99.90;;;;;;5112261;28;20054;-64
2023/10/27 11:31:30;;;;;;;51.10;8.60;;;23.50;99.90;;;;;;5111860;28;20067;-63
2023/10/27 11:34:37;;;;;;;40.30;7.07;;;23.40;99.90;;;;;;5112162;28;20605;-63
2023/10/27 11:37:40;;;;;;;42.55;7.25;;;23.40;99.90;;;;;;5112330;28;20034;-63
2023/10/27 11:40:44;;;;;;;31.20;7.25;;;23.40;99.90;;;;;;5112307;28;20054;-64
2023/10/27 11:43:48;;;;;;;47.78;9.05;;;23.50;99.90;;;;;;5112017;28;20047;-63
2023/10/27 11:46:57;;;;;;;44.25;7.57;;;23.50;99.90;;;;;;5112175;28;20039;-63
2023/10/27 11:50:01;;;;;;;51.78;8.50;;;23.50;99.90;;;;;;5112021;28;20051;-64
2023/10/27 11:53:05;;;;;;;57.22;9.80;;;23.60;99.90;;;;;;5111429;28;20602;-63
2023/10/27 11:56:09;;;;;;;40.45;7.90;;;23.60;99.90;;;;;;5111755;28;20037;-63
2023/10/27 11:59:15;;;;;;;56.72;11.55;;;23.70;99.90;;;;;;5111831;28;20047;-64
2023/10/27 12:02:19;;;;;;;52.22;11.98;;;23.70;99.90;;;;;;5111962;28;20401;-63
2023/10/27 12:05:24;;;;;;;50.60;9.10;;;23.80;99.90;;;;;;5111162;28;20038;-63
2023/10/27 12:08:28;;;;;;;43.63;8.18;;;23.80;99.90;;;;;;5111974;28;20506;-64
2023/10/27 12:11:32;;;;;;;51.50;8.02;;;23.80;99.90;;;;;;5111549;28;20655;-63
2023/10/27 12:14:36;;;;;;;56.13;8.68;;;23.80;99.90;;;;;;5111907;28;20051;-63
2023/10/27 12:17:40;;;;;;;44.25;9.07;;;23.90;99.90;;;;;;5111965;28;20047;-63
2023/10/27 12:20:44;;;;;;;43.47;9.32;;;23.90;99.90;;;;;;5111483;28;20062;-63
2023/10/27 12:23:47;;;;;;;62.03;9.43;;;23.90;99.90;;;;;;5111516;28;20502;-62
2023/10/27 12:26:55;;;;;;;53.22;10.23;;;23.90;99.90;;;;;;5111836;28;20109;-64
2023/10/27 12:29:59;;;;;;;41.50;8.25;;;23.90;99.90;;;;;;5111297;28;20059;-63
2023/10/27 12:33:04;;;;;;;36.95;8.45;;;23.90;99.90;;;;;;5111318;28;20059;-63
2023/10/27 12:36:10;;;;;;;48.40;9.45;;;24.00;99.90;;;;;;5111586;28;20054;-66
2023/10/27 12:39:15;;;;;;;48.40;8.48;;;24.10;99.90;;;;;;5111214;28;20046;-63
2023/10/27 12:42:19;;;;;;;39.10;6.45;;;24.10;99.90;;;;;;5111621;28;20399;-63
2023/10/27 12:45:23;;;;;;;36.42;6.28;;;24.10;99.90;;;;;;5111540;28;20047;-62
2023/10/27 12:48:27;;;;;;;19.70;3.63;;;24.10;99.90;;;;;;5111512;28;20399;-63
2023/10/27 12:51:31;;;;;;;12.85;3.20;;;24.10;99.90;;;;;;5111429;28;20421;-64
2023/10/27 12:54:36;;;;;;;12.05;3.17;;;24.20;99.90;;;;;;5110521;28;20038;-63
2023/10/27 12:57:42;;;;;;;8.80;1.92;;;24.10;98.30;;;;;;5111164;28;20047;-62
2023/10/27 13:00:48;;;;;;;10.15;2.30;;;24.20;97.80;;;;;;5111200;28;20387;-63
2023/10/27 13:03:52;;;;;;;9.80;2.30;;;24.30;96.60;;;;;;5110965;28;20047;-64
2023/10/27 13:06:57;;;;;;;14.48;3.58;;;24.50;96.20;;;;;;5114914;28;20415;-63
2023/10/27 13:10:02;;;;;;;13.20;2.63;;;24.20;96.00;;;;;;5115579;28;20043;-64
2023/10/27 13:13:07;;;;;;;8.35;2.33;;;24.20;95.90;;;;;;5115229;28;20062;-64
2023/10/27 13:16:12;;;;;;;11.27;2.88;;;24.20;95.90;;;;;;5115307;28;20031;-63
2023/10/27 13:19:16;;;;;;;18.02;4.18;;;24.20;96.20;;;;;;5114973;28;20062;-63
2023/10/27 13:22:25;;;;;;;22.10;3.15;;;24.30;96.90;;;;;;5114902;28;20494;-63
2023/10/27 13:25:30;;;;;;;14.13;3.67;;;24.30;97.60;;;;;;5115183;28;20050;-63
2023/10/27 13:28:34;;;;;;;16.70;3.28;;;24.30;98.00;;;;;;5115077;28;20043;-63
2023/10/27 13:31:40;;;;;;;18.77;3.10;;;24.20;98.20;;;;;;5115282;28;20051;-63
2023/10/27 13:34:45;;;;;;;14.43;3.13;;;24.30;98.60;;;;;;5114803;28;20046;-63
2023/10/27 13:37:53;;;;;;;17.98;3.80;;;24.30;98.80;;;;;;5115386;28;20388;-64
2023/10/27 13:40:57;;;;;;;19.38;3.85;;;24.20;99.30;;;;;;5114768;28;20046;-64
2023/10/27 13:44:10;;;;;;;22.05;4.60;;;24.20;99.90;;;;;;5114784;28;20048;-66
2023/10/27 13:47:14;;;;;;;26.58;6.00;;;24.20;99.90;;;;;;5115274;28;20510;-65
2023/10/27 13:50:18;;;;;;;29.27;5.55;;;24.10;99.90;;;;;;5114944;28;20035;-65
2023/10/27 13:53:22;;;;;;;28.70;5.72;;;24.20;99.90;;;;;;5114428;28;20051;-64
2023/10/27 13:56:27;;;;;;;29.67;5.63;;;24.10;99.90;;;;;;5113601;28;20043;-64
2023/10/27 13:59:31;;;;;;;29.40;6.13;;;24.10;99.90;;;;;;5114438;28;20054;-63
2023/10/27 14:02:36;;;;;;;26.17;4.68;;;24.00;99.90;;;;;;5114146;28;20041;-65
2023/10/27 14:05:39;;;;;;;21.98;3.65;;;23.90;97.80;;;;;;5114155;28;20047;-65
2023/10/27 14:08:43;;;;;;;17.92;3.63;;;23.90;97.90;;;;;;5114283;28;20066;-63
2023/10/27 14:11:47;;;;;;;13.68;3.65;;;23.90;95.60;;;;;;5113941;28;20047;-64
2023/10/27 14:14:51;;;;;;;10.55;2.78;;;23.70;94.20;;;;;;5113460;28;20510;-64
2023/10/27 14:17:55;;;;;;;16.52;3.90;;;23.90;94.50;;;;;;5113379;28;20510;-67
2023/10/27 14:20:59;;;;;;;14.23;2.78;;;23.90;94.40;;;;;;5113691;28;20050;-63
2023/10/27 14:24:04;;;;;;;18.05;4.05;;;23.90;94.20;;;;;;5113673;28;20050;-64
2023/10/27 14:27:08;;;;;;;20.77;3.80;;;23.90;94.40;;;;;;5113560;28;20105;-65
2023/10/27 14:30:12;;;;;;;14.23;3.30;;;23.90;94.70;;;;;;5113579;28;20217;-65
2023/10/27 14:33:16;;;;;;;20.15;3.80;;;23.90;95.20;;;;;;5113282;28;20175;-63
2023/10/27 14:36:39;;;;;;;24.17;4.18;;;23.90;95.50;;;;;;5113299;28;20059;-64
2023/10/27 14:39:45;;;;;;;15.98;3.50;;;23.90;95.50;;;;;;5113341;28;20050;-64
2023/10/27 14:42:50;;;;;;;17.13;3.53;;;23.90;95.70;;;;;;5113621;28;20043;-63
2023/10/27 14:45:59;;;;;;;17.38;3.78;;;23.90;96.00;;;;;;5112624;28;20463;-63
2023/10/27 14:49:03;;;;;;;17.63;3.30;;;23.90;95.80;;;;;;5112844;28;20050;-63
2023/10/27 14:52:07;;;;;;;11.63;2.58;;;23.80;95.40;;;;;;5112941;28;20047;-63
2023/10/27 14:55:12;;;;;;;14.20;3.10;;;23.80;95.20;;;;;;5113095;28;20513;-64
2023/10/27 14:58:15;;;;;;;11.27;2.53;;;23.80;95.30;;;;;;5113238;28;20046;-64
2023/10/27 15:01:20;;;;;;;12.10;2.72;;;23.80;95.60;;;;;;5112540;28;20372;-64
2023/10/27 15:04:24;;;;;;;12.20;2.40;;;23.80;95.70;;;;;;5113236;28;20466;-64
2023/10/27 15:07:27;;;;;;;16.75;3.65;;;23.80;95.50;;;;;;5113153;28;20050;-63
2023/10/27 15:10:31;;;;;;;10.32;2.15;;;23.70;94.70;;;;;;5113077;28;20047;-63
2023/10/27 15:13:36;;;;;;;9.35;2.22;;;23.60;93.80;;;;;;5112678;28;20403;-64
2023/10/27 15:16:42;;;;;;;10.90;1.83;;;23.60;93.80;;;;;;5113008;28;20058;-65
2023/10/27 15:19:47;;;;;;;9.93;2.05;;;23.60;92.70;;;;;;5112664;28;20149;-64
2023/10/27 15:22:51;;;;;;;3.83;1.48;;;23.50;92.80;;;;;;5111574;28;20039;-64
2023/10/27 15:25:57;;;;;;;9.63;2.00;;;23.50;92.50;;;;;;5112365;28;20518;-64
2023/10/27 15:29:01;;;;;;;9.57;1.95;;;23.50;91.60;;;;;;5112185;28;20053;-63
2023/10/27 15:32:05;;;;;;;9.88;1.98;;;23.40;89.30;;;;;;5112641;28;20074;-63
2023/10/27 15:35:09;;;;;;;11.65;1.95;;;23.30;90.00;;;;;;5112350;28;20490;-64
2023/10/27 15:38:16;;;;;;;5.88;1.42;;;23.30;88.80;;;;;;5112397;28;20467;-64
2023/10/27 15:41:27;;;;;;;6.30;1.45;;;23.20;90.00;;;;;;5112144;28;20070;-64
2023/10/27 15:44:31;;;;;;;7.10;2.00;;;23.20;89.80;;;;;;5111987;28;20490;-63
2023/10/27 15:47:40;;;;;;;10.18;1.70;;;23.20;90.70;;;;;;5112371;28;20156;-65
2023/10/27 15:50:44;;;;;;;8.48;2.15;;;23.20;90.40;;;;;;5111197;28;20054;-65
2023/10/27 15:53:48;;;;;;;15.77;2.15;;;23.10;90.80;;;;;;5108995;28;20050;-64
2023/10/27 15:56:52;;;;;;;7.88;1.65;;;23.00;90.70;;;;;;5110691;28;20046;-64